sensor_id;sensor_type;location;lat;lon;timestamp;temperature;humidity
14873;DHT22;7528;48.576;19.122;2022-11-20T00:04:14;7.10;61.80
14873;DHT22;7528;48.576;19.122;2022-11-20T00:09:17;7.20;61.80
14873;DHT22;7528;48.576;19.122;2022-11-20T00:14:20;7.10;61.60
14873;DHT22;7528;48.576;19.122;2022-11-20T00:19:24;7.00;62.30
14873;DHT22;7528;48.576;19.122;2022-11-20T00:24:27;7.00;62.20
14873;DHT22;7528;48.576;19.122;2022-11-20T00:29:34;7.00;62.30
14873;DHT22;7528;48.576;19.122;2022-11-20T00:34:38;7.00;62.20
14873;DHT22;7528;48.576;19.122;2022-11-20T00:39:41;7.00;62.00
14873;DHT22;7528;48.576;19.122;2022-11-20T00:44:54;7.10;62.20
14873;DHT22;7528;48.576;19.122;2022-11-20T00:49:58;7.00;62.00
14873;DHT22;7528;48.576;19.122;2022-11-20T00:55:04;7.00;62.00
14873;DHT22;7528;48.576;19.122;2022-11-20T01:00:08;7.10;62.20
14873;DHT22;7528;48.576;19.122;2022-11-20T01:05:16;7.00;62.40
14873;DHT22;7528;48.576;19.122;2022-11-20T01:10:19;7.10;62.20
14873;DHT22;7528;48.576;19.122;2022-11-20T01:15:22;7.00;62.20
14873;DHT22;7528;48.576;19.122;2022-11-20T01:20:26;7.10;62.10
14873;DHT22;7528;48.576;19.122;2022-11-20T01:25:29;7.20;61.60
14873;DHT22;7528;48.576;19.122;2022-11-20T01:30:36;7.20;61.60
14873;DHT22;7528;48.576;19.122;2022-11-20T01:35:40;7.00;62.00
14873;DHT22;7528;48.576;19.122;2022-11-20T01:40:43;6.90;61.90
14873;DHT22;7528;48.576;19.122;2022-11-20T01:46:12;6.90;62.70
14873;DHT22;7528;48.576;19.122;2022-11-20T01:51:22;6.80;62.30
14873;DHT22;7528;48.576;19.122;2022-11-20T01:56:27;6.90;62.60
14873;DHT22;7528;48.576;19.122;2022-11-20T02:01:30;6.90;62.60
14873;DHT22;7528;48.576;19.122;2022-11-20T02:06:42;6.90;62.20
14873;DHT22;7528;48.576;19.122;2022-11-20T02:11:46;6.90;61.80
14873;DHT22;7528;48.576;19.122;2022-11-20T02:16:58;6.90;62.20
14873;DHT22;7528;48.576;19.122;2022-11-20T02:22:07;6.80;62.40
14873;DHT22;7528;48.576;19.122;2022-11-20T02:27:15;6.80;62.60
14873;DHT22;7528;48.576;19.122;2022-11-20T02:32:20;6.90;62.30
14873;DHT22;7528;48.576;19.122;2022-11-20T02:37:23;6.90;62.40
14873;DHT22;7528;48.576;19.122;2022-11-20T02:42:33;6.90;63.20
14873;DHT22;7528;48.576;19.122;2022-11-20T02:47:36;7.00;62.70
14873;DHT22;7528;48.576;19.122;2022-11-20T02:52:39;7.10;62.30
14873;DHT22;7528;48.576;19.122;2022-11-20T02:57:44;7.20;62.10
14873;DHT22;7528;48.576;19.122;2022-11-20T03:02:47;7.10;61.90
14873;DHT22;7528;48.576;19.122;2022-11-20T03:07:50;7.10;62.20
14873;DHT22;7528;48.576;19.122;2022-11-20T03:12:55;7.10;61.80
14873;DHT22;7528;48.576;19.122;2022-11-20T03:17:58;7.00;62.50
14873;DHT22;7528;48.576;19.122;2022-11-20T03:23:01;7.10;62.70
14873;DHT22;7528;48.576;19.122;2022-11-20T03:28:06;7.10;62.40
14873;DHT22;7528;48.576;19.122;2022-11-20T03:33:09;7.10;62.50
14873;DHT22;7528;48.576;19.122;2022-11-20T03:38:13;7.20;62.00
14873;DHT22;7528;48.576;19.122;2022-11-20T03:43:17;7.20;61.70
14873;DHT22;7528;48.576;19.122;2022-11-20T03:48:20;7.20;61.80
14873;DHT22;7528;48.576;19.122;2022-11-20T03:53:23;7.20;61.40
14873;DHT22;7528;48.576;19.122;2022-11-20T03:58:27;7.20;61.50
14873;DHT22;7528;48.576;19.122;2022-11-20T04:03:30;7.00;62.40
14873;DHT22;7528;48.576;19.122;2022-11-20T04:08:33;7.00;62.60
14873;DHT22;7528;48.576;19.122;2022-11-20T04:13:38;7.10;62.80
14873;DHT22;7528;48.576;19.122;2022-11-20T04:18:42;7.00;62.70
14873;DHT22;7528;48.576;19.122;2022-11-20T04:23:45;7.10;62.60
14873;DHT22;7528;48.576;19.122;2022-11-20T04:28:50;7.10;62.00
14873;DHT22;7528;48.576;19.122;2022-11-20T04:33:53;7.10;61.80
14873;DHT22;7528;48.576;19.122;2022-11-20T04:38:57;7.20;62.40
14873;DHT22;7528;48.576;19.122;2022-11-20T04:44:04;7.30;62.10
14873;DHT22;7528;48.576;19.122;2022-11-20T04:49:08;7.20;62.40
14873;DHT22;7528;48.576;19.122;2022-11-20T04:54:11;7.30;62.10
14873;DHT22;7528;48.576;19.122;2022-11-20T04:59:16;7.10;61.70
14873;DHT22;7528;48.576;19.122;2022-11-20T05:04:19;7.00;62.20
14873;DHT22;7528;48.576;19.122;2022-11-20T05:09:22;7.10;62.60
14873;DHT22;7528;48.576;19.122;2022-11-20T05:14:26;7.10;62.20
14873;DHT22;7528;48.576;19.122;2022-11-20T05:19:29;7.20;62.40
14873;DHT22;7528;48.576;19.122;2022-11-20T05:24:31;7.20;62.50
14873;DHT22;7528;48.576;19.122;2022-11-20T05:29:35;7.10;62.40
14873;DHT22;7528;48.576;19.122;2022-11-20T05:34:38;7.10;62.60
14873;DHT22;7528;48.576;19.122;2022-11-20T05:39:41;7.10;62.60
14873;DHT22;7528;48.576;19.122;2022-11-20T05:44:49;7.10;62.70
14873;DHT22;7528;48.576;19.122;2022-11-20T05:49:52;7.10;63.00
14873;DHT22;7528;48.576;19.122;2022-11-20T05:55:09;7.20;63.10
14873;DHT22;7528;48.576;19.122;2022-11-20T06:00:17;7.10;63.30
14873;DHT22;7528;48.576;19.122;2022-11-20T06:05:20;7.20;63.40
14873;DHT22;7528;48.576;19.122;2022-11-20T06:10:23;7.30;63.00
14873;DHT22;7528;48.576;19.122;2022-11-20T06:15:29;7.30;63.10
14873;DHT22;7528;48.576;19.122;2022-11-20T06:20:32;7.40;62.70
14873;DHT22;7528;48.576;19.122;2022-11-20T06:25:37;7.40;61.60
14873;DHT22;7528;48.576;19.122;2022-11-20T06:30:46;7.40;61.70
14873;DHT22;7528;48.576;19.122;2022-11-20T06:35:48;7.40;61.50
14873;DHT22;7528;48.576;19.122;2022-11-20T06:40:52;7.30;61.60
14873;DHT22;7528;48.576;19.122;2022-11-20T06:45:57;7.30;62.00
14873;DHT22;7528;48.576;19.122;2022-11-20T06:51:02;7.40;61.80
14873;DHT22;7528;48.576;19.122;2022-11-20T06:56:06;7.30;62.50
14873;DHT22;7528;48.576;19.122;2022-11-20T07:01:14;7.40;62.80
14873;DHT22;7528;48.576;19.122;2022-11-20T07:06:17;7.40;63.20
14873;DHT22;7528;48.576;19.122;2022-11-20T07:11:20;7.50;63.40
14873;DHT22;7528;48.576;19.122;2022-11-20T07:16:24;7.50;63.20
14873;DHT22;7528;48.576;19.122;2022-11-20T07:21:29;7.70;62.50
14873;DHT22;7528;48.576;19.122;2022-11-20T07:26:32;7.70;62.10
14873;DHT22;7528;48.576;19.122;2022-11-20T07:31:38;7.70;61.80
14873;DHT22;7528;48.576;19.122;2022-11-20T07:36:41;7.70;62.50
14873;DHT22;7528;48.576;19.122;2022-11-20T07:41:49;7.80;61.70
14873;DHT22;7528;48.576;19.122;2022-11-20T07:46:53;7.80;62.10
14873;DHT22;7528;48.576;19.122;2022-11-20T07:51:56;8.00;61.30
14873;DHT22;7528;48.576;19.122;2022-11-20T07:56:59;8.00;61.50
14873;DHT22;7528;48.576;19.122;2022-11-20T08:02:03;8.10;61.70
14873;DHT22;7528;48.576;19.122;2022-11-20T08:07:06;8.10;61.20
14873;DHT22;7528;48.576;19.122;2022-11-20T08:12:18;8.20;61.70
14873;DHT22;7528;48.576;19.122;2022-11-20T08:17:39;8.30;60.90
14873;DHT22;7528;48.576;19.122;2022-11-20T08:22:42;8.50;60.70
14873;DHT22;7528;48.576;19.122;2022-11-20T08:27:46;8.60;60.30
14873;DHT22;7528;48.576;19.122;2022-11-20T08:32:51;8.50;60.90
14873;DHT22;7528;48.576;19.122;2022-11-20T08:37:54;8.50;61.00
14873;DHT22;7528;48.576;19.122;2022-11-20T08:42:56;8.50;60.00
14873;DHT22;7528;48.576;19.122;2022-11-20T08:48:02;8.70;60.10
14873;DHT22;7528;48.576;19.122;2022-11-20T08:53:05;8.80;59.60
14873;DHT22;7528;48.576;19.122;2022-11-20T08:58:08;8.90;59.20
14873;DHT22;7528;48.576;19.122;2022-11-20T09:03:12;9.10;59.40
14873;DHT22;7528;48.576;19.122;2022-11-20T09:08:14;9.20;59.00
14873;DHT22;7528;48.576;19.122;2022-11-20T09:13:18;9.30;58.90
14873;DHT22;7528;48.576;19.122;2022-11-20T09:18:22;9.40;58.10
14873;DHT22;7528;48.576;19.122;2022-11-20T09:23:30;9.40;58.50
14873;DHT22;7528;48.576;19.122;2022-11-20T09:28:33;9.40;58.10
14873;DHT22;7528;48.576;19.122;2022-11-20T09:33:37;9.60;58.70
14873;DHT22;7528;48.576;19.122;2022-11-20T09:38:40;9.70;57.80
14873;DHT22;7528;48.576;19.122;2022-11-20T09:43:50;9.70;57.80
14873;DHT22;7528;48.576;19.122;2022-11-20T09:49:26;9.70;57.90
14873;DHT22;7528;48.576;19.122;2022-11-20T09:54:33;9.60;57.60
14873;DHT22;7528;48.576;19.122;2022-11-20T09:59:40;9.50;58.50
14873;DHT22;7528;48.576;19.122;2022-11-20T10:04:49;9.40;59.00
14873;DHT22;7528;48.576;19.122;2022-11-20T10:09:56;9.50;58.10
14873;DHT22;7528;48.576;19.122;2022-11-20T10:15:15;9.50;58.50
14873;DHT22;7528;48.576;19.122;2022-11-20T10:20:29;9.60;58.10
14873;DHT22;7528;48.576;19.122;2022-11-20T10:25:39;9.60;57.60
14873;DHT22;7528;48.576;19.122;2022-11-20T10:30:43;9.80;57.50
14873;DHT22;7528;48.576;19.122;2022-11-20T10:35:54;10.00;57.50
14873;DHT22;7528;48.576;19.122;2022-11-20T10:41:02;11.40;56.60
14873;DHT22;7528;48.576;19.122;2022-11-20T10:46:20;13.60;51.50
14873;DHT22;7528;48.576;19.122;2022-11-20T10:51:33;15.70;47.50
14873;DHT22;7528;48.576;19.122;2022-11-20T10:56:40;17.50;43.80
14873;DHT22;7528;48.576;19.122;2022-11-20T11:01:44;18.70;39.70
14873;DHT22;7528;48.576;19.122;2022-11-20T11:06:49;18.80;37.50
14873;DHT22;7528;48.576;19.122;2022-11-20T11:11:51;17.60;39.50
14873;DHT22;7528;48.576;19.122;2022-11-20T11:16:55;17.40;40.40
14873;DHT22;7528;48.576;19.122;2022-11-20T11:22:00;16.70;41.20
14873;DHT22;7528;48.576;19.122;2022-11-20T11:27:11;15.80;41.60
14873;DHT22;7528;48.576;19.122;2022-11-20T11:32:15;15.60;43.30
14873;DHT22;7528;48.576;19.122;2022-11-20T11:37:21;15.50;43.10
14873;DHT22;7528;48.576;19.122;2022-11-20T11:42:24;14.60;45.10
14873;DHT22;7528;48.576;19.122;2022-11-20T11:47:30;14.30;45.70
14873;DHT22;7528;48.576;19.122;2022-11-20T11:52:41;13.70;47.10
14873;DHT22;7528;48.576;19.122;2022-11-20T11:57:49;13.60;47.90
14873;DHT22;7528;48.576;19.122;2022-11-20T12:02:59;13.50;48.10
14873;DHT22;7528;48.576;19.122;2022-11-20T12:08:09;13.30;48.90
14873;DHT22;7528;48.576;19.122;2022-11-20T12:13:20;13.40;49.10
14873;DHT22;7528;48.576;19.122;2022-11-20T12:18:26;13.30;49.10
14873;DHT22;7528;48.576;19.122;2022-11-20T12:23:37;13.50;49.40
14873;DHT22;7528;48.576;19.122;2022-11-20T12:28:51;14.00;48.30
14873;DHT22;7528;48.576;19.122;2022-11-20T12:39:34;14.80;46.80
14873;DHT22;7528;48.576;19.122;2022-11-20T12:44:57;14.40;46.80
14873;DHT22;7528;48.576;19.122;2022-11-20T12:50:17;14.30;47.20
14873;DHT22;7528;48.576;19.122;2022-11-20T12:55:35;14.50;47.40
14873;DHT22;7528;48.576;19.122;2022-11-20T13:00:47;14.10;47.40
14873;DHT22;7528;48.576;19.122;2022-11-20T13:06:02;13.60;49.20
14873;DHT22;7528;48.576;19.122;2022-11-20T13:11:14;13.40;49.90
14873;DHT22;7528;48.576;19.122;2022-11-20T13:16:26;13.10;50.60
14873;DHT22;7528;48.576;19.122;2022-11-20T13:21:38;12.90;50.60
14873;DHT22;7528;48.576;19.122;2022-11-20T13:26:46;12.90;50.80
14873;DHT22;7528;48.576;19.122;2022-11-20T13:31:48;13.10;51.00
14873;DHT22;7528;48.576;19.122;2022-11-20T13:36:53;13.10;50.50
14873;DHT22;7528;48.576;19.122;2022-11-20T13:42:00;12.90;50.60
14873;DHT22;7528;48.576;19.122;2022-11-20T13:47:19;12.70;51.10
14873;DHT22;7528;48.576;19.122;2022-11-20T13:52:45;12.80;51.20
14873;DHT22;7528;48.576;19.122;2022-11-20T13:58:20;13.40;50.30
14873;DHT22;7528;48.576;19.122;2022-11-20T14:03:30;13.60;49.90
14873;DHT22;7528;48.576;19.122;2022-11-20T14:08:39;13.60;49.30
14873;DHT22;7528;48.576;19.122;2022-11-20T14:13:57;13.30;49.70
14873;DHT22;7528;48.576;19.122;2022-11-20T14:19:27;12.90;50.40
14873;DHT22;7528;48.576;19.122;2022-11-20T14:24:31;12.40;51.50
14873;DHT22;7528;48.576;19.122;2022-11-20T14:29:36;12.20;51.90
14873;DHT22;7528;48.576;19.122;2022-11-20T14:34:44;12.10;52.40
14873;DHT22;7528;48.576;19.122;2022-11-20T14:39:50;12.10;52.00
14873;DHT22;7528;48.576;19.122;2022-11-20T14:44:57;12.00;52.40
14873;DHT22;7528;48.576;19.122;2022-11-20T14:50:01;11.80;52.80
14873;DHT22;7528;48.576;19.122;2022-11-20T14:55:04;11.50;53.40
14873;DHT22;7528;48.576;19.122;2022-11-20T15:00:19;11.30;53.90
14873;DHT22;7528;48.576;19.122;2022-11-20T15:05:26;11.00;54.30
14873;DHT22;7528;48.576;19.122;2022-11-20T15:10:46;10.90;54.60
14873;DHT22;7528;48.576;19.122;2022-11-20T15:15:52;10.70;55.10
14873;DHT22;7528;48.576;19.122;2022-11-20T15:20:58;10.50;55.60
14873;DHT22;7528;48.576;19.122;2022-11-20T15:26:04;10.30;55.90
14873;DHT22;7528;48.576;19.122;2022-11-20T15:31:11;10.20;56.20
14873;DHT22;7528;48.576;19.122;2022-11-20T15:36:14;10.00;56.60
14873;DHT22;7528;48.576;19.122;2022-11-20T15:41:17;9.80;56.90
14873;DHT22;7528;48.576;19.122;2022-11-20T15:46:25;9.70;57.00
14873;DHT22;7528;48.576;19.122;2022-11-20T15:51:30;9.50;57.20
14873;DHT22;7528;48.576;19.122;2022-11-20T15:56:34;9.30;57.50
14873;DHT22;7528;48.576;19.122;2022-11-20T16:01:39;9.20;57.70
14873;DHT22;7528;48.576;19.122;2022-11-20T16:06:42;9.10;57.90
14873;DHT22;7528;48.576;19.122;2022-11-20T16:11:45;9.10;58.10
14873;DHT22;7528;48.576;19.122;2022-11-20T16:16:49;8.90;58.50
14873;DHT22;7528;48.576;19.122;2022-11-20T16:21:51;8.70;58.80
14873;DHT22;7528;48.576;19.122;2022-11-20T16:26:55;8.60;59.00
14873;DHT22;7528;48.576;19.122;2022-11-20T16:31:59;8.60;59.10
14873;DHT22;7528;48.576;19.122;2022-11-20T16:37:02;8.50;58.90
14873;DHT22;7528;48.576;19.122;2022-11-20T16:42:04;8.40;59.10
14873;DHT22;7528;48.576;19.122;2022-11-20T16:47:08;8.30;59.10
14873;DHT22;7528;48.576;19.122;2022-11-20T16:52:11;8.10;59.40
14873;DHT22;7528;48.576;19.122;2022-11-20T16:57:13;8.00;59.50
14873;DHT22;7528;48.576;19.122;2022-11-20T17:02:18;7.90;59.50
14873;DHT22;7528;48.576;19.122;2022-11-20T17:07:21;7.80;59.60
14873;DHT22;7528;48.576;19.122;2022-11-20T17:12:23;7.70;60.00
14873;DHT22;7528;48.576;19.122;2022-11-20T17:17:28;7.60;60.20
14873;DHT22;7528;48.576;19.122;2022-11-20T17:22:31;7.60;60.40
14873;DHT22;7528;48.576;19.122;2022-11-20T17:27:33;7.60;60.80
14873;DHT22;7528;48.576;19.122;2022-11-20T17:32:38;7.40;60.80
14873;DHT22;7528;48.576;19.122;2022-11-20T17:37:45;7.30;61.00
14873;DHT22;7528;48.576;19.122;2022-11-20T17:42:48;7.30;61.20
14873;DHT22;7528;48.576;19.122;2022-11-20T17:47:52;7.20;61.70
14873;DHT22;7528;48.576;19.122;2022-11-20T17:52:54;7.20;62.20
14873;DHT22;7528;48.576;19.122;2022-11-20T17:57:57;7.20;61.90
14873;DHT22;7528;48.576;19.122;2022-11-20T18:03:04;7.20;62.20
14873;DHT22;7528;48.576;19.122;2022-11-20T18:08:07;7.30;62.50
14873;DHT22;7528;48.576;19.122;2022-11-20T18:13:09;7.30;63.00
14873;DHT22;7528;48.576;19.122;2022-11-20T18:18:14;7.20;63.10
14873;DHT22;7528;48.576;19.122;2022-11-20T18:23:16;7.20;63.00
14873;DHT22;7528;48.576;19.122;2022-11-20T18:28:21;7.20;63.10
14873;DHT22;7528;48.576;19.122;2022-11-20T18:33:25;7.20;63.30
14873;DHT22;7528;48.576;19.122;2022-11-20T18:38:28;7.10;63.30
14873;DHT22;7528;48.576;19.122;2022-11-20T18:43:30;7.00;63.40
14873;DHT22;7528;48.576;19.122;2022-11-20T18:48:52;7.00;63.90
14873;DHT22;7528;48.576;19.122;2022-11-20T18:53:55;7.00;64.10
14873;DHT22;7528;48.576;19.122;2022-11-20T18:58:58;7.00;64.30
14873;DHT22;7528;48.576;19.122;2022-11-20T19:04:07;7.10;64.60
14873;DHT22;7528;48.576;19.122;2022-11-20T19:09:11;7.10;64.80
14873;DHT22;7528;48.576;19.122;2022-11-20T19:14:14;7.10;64.50
14873;DHT22;7528;48.576;19.122;2022-11-20T19:19:18;7.00;64.30
14873;DHT22;7528;48.576;19.122;2022-11-20T19:24:21;6.90;64.20
14873;DHT22;7528;48.576;19.122;2022-11-20T19:29:24;7.00;64.40
14873;DHT22;7528;48.576;19.122;2022-11-20T19:34:29;6.90;64.70
14873;DHT22;7528;48.576;19.122;2022-11-20T19:39:33;7.00;64.90
14873;DHT22;7528;48.576;19.122;2022-11-20T19:44:37;7.00;65.00
14873;DHT22;7528;48.576;19.122;2022-11-20T19:49:41;6.90;64.50
14873;DHT22;7528;48.576;19.122;2022-11-20T19:54:44;6.90;64.10
14873;DHT22;7528;48.576;19.122;2022-11-20T19:59:47;6.80;64.00
14873;DHT22;7528;48.576;19.122;2022-11-20T20:04:52;6.80;64.10
14873;DHT22;7528;48.576;19.122;2022-11-20T20:09:54;6.80;64.10
14873;DHT22;7528;48.576;19.122;2022-11-20T20:14:57;6.90;64.20
14873;DHT22;7528;48.576;19.122;2022-11-20T20:20:02;6.90;64.40
14873;DHT22;7528;48.576;19.122;2022-11-20T20:25:05;6.80;64.10
14873;DHT22;7528;48.576;19.122;2022-11-20T20:30:08;6.80;64.70
14873;DHT22;7528;48.576;19.122;2022-11-20T20:35:13;6.80;64.50
14873;DHT22;7528;48.576;19.122;2022-11-20T20:40:16;6.70;64.10
14873;DHT22;7528;48.576;19.122;2022-11-20T20:45:19;6.60;64.00
14873;DHT22;7528;48.576;19.122;2022-11-20T20:50:23;6.50;64.30
14873;DHT22;7528;48.576;19.122;2022-11-20T20:55:26;6.50;66.10
14873;DHT22;7528;48.576;19.122;2022-11-20T21:00:29;6.50;65.90
14873;DHT22;7528;48.576;19.122;2022-11-20T21:05:35;6.50;65.70
14873;DHT22;7528;48.576;19.122;2022-11-20T21:10:38;6.60;65.70
14873;DHT22;7528;48.576;19.122;2022-11-20T21:15:41;6.50;65.90
14873;DHT22;7528;48.576;19.122;2022-11-20T21:20:45;6.50;65.70
14873;DHT22;7528;48.576;19.122;2022-11-20T21:26:07;6.60;65.00
14873;DHT22;7528;48.576;19.122;2022-11-20T21:31:12;6.50;64.70
14873;DHT22;7528;48.576;19.122;2022-11-20T21:36:18;6.40;64.80
14873;DHT22;7528;48.576;19.122;2022-11-20T21:41:22;6.30;65.00
14873;DHT22;7528;48.576;19.122;2022-11-20T21:46:26;6.10;65.00
14873;DHT22;7528;48.576;19.122;2022-11-20T21:51:30;6.00;65.50
14873;DHT22;7528;48.576;19.122;2022-11-20T21:56:33;5.90;65.30
14873;DHT22;7528;48.576;19.122;2022-11-20T22:01:35;5.90;65.20
14873;DHT22;7528;48.576;19.122;2022-11-20T22:06:41;5.90;65.30
14873;DHT22;7528;48.576;19.122;2022-11-20T22:11:43;5.80;64.90
14873;DHT22;7528;48.576;19.122;2022-11-20T22:16:46;5.70;65.20
14873;DHT22;7528;48.576;19.122;2022-11-20T22:21:51;5.60;65.40
14873;DHT22;7528;48.576;19.122;2022-11-20T22:26:54;5.60;65.80
14873;DHT22;7528;48.576;19.122;2022-11-20T22:31:56;5.60;65.60
14873;DHT22;7528;48.576;19.122;2022-11-20T22:37:00;5.60;65.70
14873;DHT22;7528;48.576;19.122;2022-11-20T22:42:03;5.60;65.80
14873;DHT22;7528;48.576;19.122;2022-11-20T22:47:06;5.60;65.50
14873;DHT22;7528;48.576;19.122;2022-11-20T22:52:10;5.70;66.00
14873;DHT22;7528;48.576;19.122;2022-11-20T22:57:12;5.80;66.40
14873;DHT22;7528;48.576;19.122;2022-11-20T23:02:15;5.80;66.80
14873;DHT22;7528;48.576;19.122;2022-11-20T23:07:19;5.80;67.00
14873;DHT22;7528;48.576;19.122;2022-11-20T23:12:22;5.80;66.90
14873;DHT22;7528;48.576;19.122;2022-11-20T23:17:24;5.80;67.20
14873;DHT22;7528;48.576;19.122;2022-11-20T23:22:30;5.90;67.50
14873;DHT22;7528;48.576;19.122;2022-11-20T23:27:33;6.00;67.10
14873;DHT22;7528;48.576;19.122;2022-11-20T23:32:35;6.00;66.50
14873;DHT22;7528;48.576;19.122;2022-11-20T23:37:39;5.80;66.40
14873;DHT22;7528;48.576;19.122;2022-11-20T23:42:43;5.70;67.00
14873;DHT22;7528;48.576;19.122;2022-11-20T23:47:59;5.70;67.40
14873;DHT22;7528;48.576;19.122;2022-11-20T23:53:03;5.80;67.30
14873;DHT22;7528;48.576;19.122;2022-11-20T23:58:06;5.80;67.40
